Meteo Giornale » Osservazioni meteo Francia » Nizza

ore: 05:30 - Osservazioni Meteo Nizza
Lat. 43° 39' N Lon. 7° 12' E Alt. 4 metri s.l.m.

sereno Europe/Paris

5 °C

Sereno

Temp. 24 Ore

4 °C

12 °C

Nord/NOvest

18.5 Km/h

Dew point -4 °C

Umidità 52 %

Visibilità  10 Km

Il sole sorge alle ore 07:50

Il sole tramonta alle ore 17:37

Data e Ora Cielo e Fenomeni T °C DP °C Um. % Pres. hPa Vis. km Vento km/h
Oggi h: 05:30 sereno Sereno 5 -4 52 1017 10 N/NO 18.5
Oggi h: 05:00 sereno Sereno 4 -4 55 1017 10 N/NO 16.7
Oggi h: 04:30 sereno Sereno 4 -4 55 1017 10 N/NO 20.3
Oggi h: 04:00 sereno Sereno 4 -4 55 1017 10 N/NO 22.2
Oggi h: 03:30 sereno Sereno 5 -3 56 1017 10 N/NO 22.2
Oggi h: 03:00 molto_nuvoloso Molto Nuvoloso 5 -3 56 1018 10 N/NO 22.2
Oggi h: 02:30 poco_nuvoloso Poco Nuvoloso 5 -3 56 1017 10 N/NO 16.7
Oggi h: 02:00 sereno Sereno 5 -3 56 1018 10 N/NO 20.3
Oggi h: 01:30 sereno Sereno 5 -3 56 1018 10 N/NO 20.3
Oggi h: 01:00 sereno Sereno 5 -3 56 1018 10 N/NO 16.7
Oggi h: 00:30 sereno Sereno 5 -3 56 1018 10 N/NO 16.7
Oggi h: 00:00 sereno Sereno 5 -3 56 1019 10 N/NO 13
Ieri h: 23:30 sereno Sereno 5 -3 56 1018 10 N/NO 16.7
Ieri h: 23:00 sereno Sereno 6 -3 52 1018 10 N/NO 20.3
Ieri h: 22:30 sereno Sereno 6 -2 56 1018 10 N/NO 16.7
Ieri h: 22:00 sereno Sereno 6 -2 56 1018 10 N/NO 18.5
Ieri h: 21:30 sereno Sereno 6 -2 56 1019 10 NO 18.5
Ieri h: 21:00 sereno Sereno 7 -1 56 1018 10 N/NO 16.7
Ieri h: 19:30 sereno Sereno 7 1 65 1018 10 N/NO 9.3
Ieri h: 19:00 sereno Sereno 8 1 61 1018 10 N 7.4
Ieri h: 18:30 sereno Sereno 8 1 61 1017 10 N 0
Ieri h: 18:00 sereno Sereno 10 0 49 1017 10 S/SO 7.4
Ieri h: 17:30 sereno Sereno 11 1 50 1017 10 S/SO 14.8
Ieri h: 17:00 sereno Sereno 11 2 53 1017 10 S/SO 16.7
Ieri h: 16:30 sereno Sereno 11 1 50 1017 10 S/SO 20.3
Ieri h: 15:30 sereno Sereno 12 -0 43 1016 10 SO 22.2
Ieri h: 15:00 sereno Sereno 12 -1 40 1016 10 S/SO 22.2
Ieri h: 14:30 sereno Sereno 12 1 46 1016 10 S/SO 22.2
Ieri h: 14:00 sereno Sereno 12 -1 40 1017 10 SO 20.3
Ieri h: 13:30 sereno Sereno 12 0 43 1017 10 S/SO 20.3
Ieri h: 13:00 sereno Sereno 12 -1 40 1017 10 S 7.4
Ieri h: 12:30 sereno Sereno 11 -4 34 1018 10 N 5.5
Ieri h: 12:00 sereno Sereno 10 -7 29 1018 10 NO 13
Ieri h: 11:30 sereno Sereno 9 -8 29 1018 10 NO 18.5
Ieri h: 11:00 sereno Sereno 8 -8 31 1018 10 NO 16.7
Ieri h: 10:30 sereno Sereno 7 -8 33 1017 10 N/NO 18.5
Ieri h: 10:00 sereno Sereno 6 -8 35 1017 10 N/NO 16.7
Ieri h: 09:30 sereno Sereno 6 -8 35 1017 10 N/NO 16.7
Ieri h: 09:00 sereno Sereno 5 -9 35 1017 10 N/NO 18.5
Ieri h: 08:30 sereno Sereno 4 -9 38 1016 10 N/NO 14.8
Ieri h: 08:00 sereno Sereno 4 -9 38 1016 10 N/NO 16.7
Ieri h: 07:30 sereno Sereno 4 -9 38 1015 10 N 14.8
Ieri h: 06:30 sereno Sereno 4 -9 38 1014 10 N/NO 20.3
Ieri h: 06:00 sereno Sereno 5 -9 35 1014 10 N/NO 16.7